Time;durP1;ratioP1;P1;durP2;ratioP2;P2;SDS_P1;SDS_P2;PMS_P1;PMS_P2;Temp;Humidity;BMP_temperature;BMP_pressure;BME280_temperature;BME280_humidity;BME280_pressure;Samples;Min_cycle;Max_cycle;Signal;HPM_P1;HPM_P2
2022/01/01 00:00:46;;;;;;;111.97;56.17;;;;;;;;;;5130135;27;20121;-67
2022/01/01 00:03:12;;;;;;;150.18;77.85;;;;;;;;;;5130340;27;20052;-67
2022/01/01 00:05:39;;;;;;;173.05;100.63;;;;;;;;;;5128735;27;20100;-67
2022/01/01 00:08:07;;;;;;;132.88;69.25;;;;;;;;;;5128827;27;20056;-68
2022/01/01 00:10:34;;;;;;;107.75;57.40;;;;;;;;;;5129572;27;20089;-70
2022/01/01 00:13:14;;;;;;;96.15;45.92;;;;;;;;;;5129953;27;20546;-67
2022/01/01 00:15:40;;;;;;;106.72;47.33;;;;;;;;;;5128669;27;20047;-68
2022/01/01 00:18:06;;;;;;;106.95;43.72;;;;;;;;;;5128815;27;20139;-67
2022/01/01 00:20:33;;;;;;;88.35;38.42;;;;;;;;;;5129094;27;20058;-70
2022/01/01 00:22:59;;;;;;;109.30;47.97;;;;;;;;;;5127827;27;20097;-69
2022/01/01 00:25:25;;;;;;;102.60;48.65;;;;;;;;;;5128977;27;20440;-67
2022/01/01 00:27:53;;;;;;;98.55;46.47;;;;;;;;;;5129293;27;20468;-67
2022/01/01 00:30:19;;;;;;;88.47;40.13;;;;;;;;;;5128548;27;20520;-67
2022/01/01 00:32:46;;;;;;;95.30;40.55;;;;;;;;;;5128652;27;20266;-67
2022/01/01 00:35:12;;;;;;;90.20;36.70;;;;;;;;;;5128566;27;20147;-67
2022/01/01 00:37:38;;;;;;;77.97;34.70;;;;;;;;;;5129031;27;20055;-67
2022/01/01 00:40:05;;;;;;;83.63;34.42;;;;;;;;;;5128707;27;20055;-67
2022/01/01 00:42:31;;;;;;;84.72;34.15;;;;;;;;;;5128078;27;20851;-67
2022/01/01 00:44:57;;;;;;;85.78;38.08;;;;;;;;;;5128740;27;20051;-67
2022/01/01 00:47:24;;;;;;;92.53;40.75;;;;;;;;;;5129323;27;20143;-67
2022/01/01 00:49:50;;;;;;;92.32;40.53;;;;;;;;;;5128231;27;20441;-67
2022/01/01 00:52:17;;;;;;;98.20;42.72;;;;;;;;;;5128547;27;20052;-67
2022/01/01 00:54:43;;;;;;;97.03;45.42;;;;;;;;;;5127731;27;20043;-67
2022/01/01 00:57:09;;;;;;;94.65;48.85;;;;;;;;;;5128861;27;20083;-66
2022/01/01 00:59:36;;;;;;;102.93;50.30;;;;;;;;;;5128750;27;20062;-66
2022/01/01 01:02:02;;;;;;;112.50;51.85;;;;;;;;;;5128293;27;20059;-67
2022/01/01 01:04:29;;;;;;;116.57;54.90;;;;;;;;;;5128903;27;20047;-67
2022/01/01 01:06:55;;;;;;;118.32;57.10;;;;;;;;;;5128623;27;20513;-67
2022/01/01 01:09:22;;;;;;;147.23;76.28;;;;;;;;;;5110154;27;20568;-67
2022/01/01 01:11:51;;;;;;;128.63;64.07;;;;;;;;;;5129072;27;20051;-67
2022/01/01 01:14:23;;;;;;;136.15;66.88;;;;;;;;;;5128084;27;20054;-67
2022/01/01 01:16:51;;;;;;;134.82;64.95;;;;;;;;;;5128300;27;20593;-67
2022/01/01 01:19:18;;;;;;;128.55;66.45;;;;;;;;;;5127705;27;20052;-67
2022/01/01 01:21:44;;;;;;;125.90;65.18;;;;;;;;;;5128052;27;20083;-66
2022/01/01 01:24:12;;;;;;;134.63;66.72;;;;;;;;;;5128153;27;20509;-66
2022/01/01 01:26:38;;;;;;;136.68;68.90;;;;;;;;;;5128696;27;20515;-67
2022/01/01 01:29:05;;;;;;;132.30;68.70;;;;;;;;;;5127991;27;20527;-67
2022/01/01 01:31:32;;;;;;;138.02;67.20;;;;;;;;;;5128153;27;20158;-66
2022/01/01 01:33:58;;;;;;;129.85;63.92;;;;;;;;;;5130132;27;20659;-67
2022/01/01 01:36:24;;;;;;;126.25;63.58;;;;;;;;;;5131742;27;20066;-66
2022/01/01 01:38:50;;;;;;;113.55;55.67;;;;;;;;;;5131472;27;20054;-66
2022/01/01 01:41:17;;;;;;;112.00;54.80;;;;;;;;;;5131989;27;20066;-67
2022/01/01 01:43:45;;;;;;;103.80;49.28;;;;;;;;;;5131091;27;20052;-67
2022/01/01 01:46:14;;;;;;;108.70;50.00;;;;;;;;;;5131695;27;20940;-67
2022/01/01 01:48:41;;;;;;;106.85;49.85;;;;;;;;;;5131558;27;20079;-67
2022/01/01 01:51:09;;;;;;;95.97;47.53;;;;;;;;;;5131674;27;20067;-66
2022/01/01 01:53:35;;;;;;;99.03;47.15;;;;;;;;;;5131183;27;20054;-67
2022/01/01 01:56:01;;;;;;;100.10;45.20;;;;;;;;;;5130602;27;20051;-66
2022/01/01 01:58:30;;;;;;;92.43;45.60;;;;;;;;;;5131583;27;20087;-66
2022/01/01 02:03:35;;;;;;;93.93;40.95;;;;;;;;;;5130739;27;20052;-67
2022/01/01 02:06:04;;;;;;;91.28;39.90;;;;;;;;;;5131204;27;20512;-66
2022/01/01 02:08:30;;;;;;;83.18;38.03;;;;;;;;;;5130584;27;20060;-67
2022/01/01 02:10:57;;;;;;;83.03;35.97;;;;;;;;;;5131400;27;20056;-66
2022/01/01 02:13:30;;;;;;;78.70;33.25;;;;;;;;;;5131103;27;20535;-66
2022/01/01 02:18:23;;;;;;;78.57;31.90;;;;;;;;;;5131611;27;20044;-66
2022/01/01 02:20:50;;;;;;;74.45;30.23;;;;;;;;;;5131249;27;20055;-67
2022/01/01 02:23:17;;;;;;;74.97;30.30;;;;;;;;;;5131284;27;20493;-66
2022/01/01 02:25:43;;;;;;;79.85;32.08;;;;;;;;;;5131078;27;20043;-67
2022/01/01 02:28:10;;;;;;;87.03;31.75;;;;;;;;;;5131343;27;20062;-66
2022/01/01 02:30:36;;;;;;;78.63;30.05;;;;;;;;;;5130964;27;20051;-66
2022/01/01 02:33:03;;;;;;;79.78;29.92;;;;;;;;;;5131054;27;20055;-67
2022/01/01 02:35:29;;;;;;;66.35;27.42;;;;;;;;;;5131069;27;20062;-66
2022/01/01 02:37:55;;;;;;;71.32;28.15;;;;;;;;;;5130390;27;20055;-66
2022/01/01 02:40:21;;;;;;;70.68;26.73;;;;;;;;;;5131143;27;20502;-67
2022/01/01 02:42:48;;;;;;;66.78;24.90;;;;;;;;;;5131190;27;20059;-67
2022/01/01 02:45:15;;;;;;;55.10;22.42;;;;;;;;;;5130175;27;20052;-67
2022/01/01 02:47:42;;;;;;;62.90;23.63;;;;;;;;;;5131011;27;20055;-67
2022/01/01 02:50:08;;;;;;;56.22;23.25;;;;;;;;;;5130976;27;20062;-67
2022/01/01 02:52:34;;;;;;;58.67;23.30;;;;;;;;;;5130651;27;20057;-67
2022/01/01 02:55:01;;;;;;;56.50;20.05;;;;;;;;;;5130456;27;20266;-67
2022/01/01 02:57:27;;;;;;;49.58;18.38;;;;;;;;;;5130419;27;20489;-66
2022/01/01 02:59:54;;;;;;;54.30;19.85;;;;;;;;;;5130905;27;20051;-67
2022/01/01 03:02:20;;;;;;;52.92;19.60;;;;;;;;;;5130422;27;20142;-67
2022/01/01 03:04:47;;;;;;;53.53;19.30;;;;;;;;;;5130051;27;20102;-67
2022/01/01 03:07:13;;;;;;;48.80;18.02;;;;;;;;;;5130897;27;20062;-66
2022/01/01 03:09:39;;;;;;;49.03;17.35;;;;;;;;;;5130711;27;20139;-67
2022/01/01 03:12:07;;;;;;;41.78;16.60;;;;;;;;;;5131100;27;20130;-66
2022/01/01 03:14:34;;;;;;;48.15;15.40;;;;;;;;;;5130088;27;20161;-67
2022/01/01 03:17:01;;;;;;;33.90;13.95;;;;;;;;;;5130273;27;20067;-67
2022/01/01 03:19:27;;;;;;;47.40;15.75;;;;;;;;;;5130157;27;20514;-66
2022/01/01 03:21:53;;;;;;;44.05;15.68;;;;;;;;;;5129559;27;20138;-67
2022/01/01 03:24:19;;;;;;;37.08;15.57;;;;;;;;;;5129985;27;20528;-67
2022/01/01 03:26:46;;;;;;;40.75;16.45;;;;;;;;;;5130160;27;20519;-67
2022/01/01 03:29:12;;;;;;;46.17;16.50;;;;;;;;;;5130174;27;20056;-67
2022/01/01 03:31:38;;;;;;;45.45;17.15;;;;;;;;;;5129684;27;20063;-67
2022/01/01 03:34:05;;;;;;;47.42;16.23;;;;;;;;;;5129942;27;20162;-67
2022/01/01 03:36:31;;;;;;;46.15;17.42;;;;;;;;;;5130389;27;20048;-67
2022/01/01 03:38:59;;;;;;;44.17;17.70;;;;;;;;;;5130250;27;20058;-67
2022/01/01 03:41:26;;;;;;;52.70;18.95;;;;;;;;;;5130223;27;20055;-66
2022/01/01 03:43:52;;;;;;;51.33;20.17;;;;;;;;;;5129506;27;20135;-66
2022/01/01 03:46:18;;;;;;;50.65;19.65;;;;;;;;;;5129419;27;20048;-67
2022/01/01 03:48:45;;;;;;;59.75;19.50;;;;;;;;;;5129484;27;20071;-67
2022/01/01 03:51:11;;;;;;;48.00;19.50;;;;;;;;;;5130191;27;20047;-66
2022/01/01 03:53:38;;;;;;;54.70;20.27;;;;;;;;;;5129870;27;20055;-67
2022/01/01 03:56:04;;;;;;;54.28;19.48;;;;;;;;;;5129901;27;20054;-67
2022/01/01 03:58:30;;;;;;;54.63;19.67;;;;;;;;;;5130010;27;20048;-66
2022/01/01 04:00:57;;;;;;;49.95;18.92;;;;;;;;;;5127166;27;20056;-67
2022/01/01 04:03:23;;;;;;;46.85;19.85;;;;;;;;;;5129243;27;20058;-66
2022/01/01 04:05:50;;;;;;;49.78;19.33;;;;;;;;;;5127738;27;20051;-69
2022/01/01 04:08:16;;;;;;;47.92;18.70;;;;;;;;;;5127694;27;20587;-69
2022/01/01 04:10:42;;;;;;;52.47;19.02;;;;;;;;;;5126188;27;20501;-68
2022/01/01 04:13:09;;;;;;;54.42;20.65;;;;;;;;;;5129253;27;20058;-68
2022/01/01 04:15:36;;;;;;;51.92;19.42;;;;;;;;;;5129375;27;20054;-69
2022/01/01 04:18:08;;;;;;;55.03;19.73;;;;;;;;;;5128704;27;20051;-68
2022/01/01 04:20:35;;;;;;;47.22;18.70;;;;;;;;;;5128776;27;20052;-68
2022/01/01 04:23:01;;;;;;;46.10;19.48;;;;;;;;;;5128782;27;20047;-69
2022/01/01 04:25:28;;;;;;;55.13;20.27;;;;;;;;;;5128833;27;20051;-68
2022/01/01 04:27:55;;;;;;;45.78;19.27;;;;;;;;;;5128846;27;20060;-68
2022/01/01 04:30:22;;;;;;;43.75;18.45;;;;;;;;;;5128756;27;20104;-68
2022/01/01 04:32:49;;;;;;;53.13;20.73;;;;;;;;;;5129842;27;20059;-68
2022/01/01 04:35:15;;;;;;;51.67;20.23;;;;;;;;;;5128244;27;20054;-68
2022/01/01 04:37:41;;;;;;;49.97;18.52;;;;;;;;;;5128947;27;20472;-68
2022/01/01 04:40:08;;;;;;;50.40;18.02;;;;;;;;;;5128593;27;20059;-68
2022/01/01 04:42:35;;;;;;;49.22;18.65;;;;;;;;;;5128376;27;20059;-68
2022/01/01 04:45:01;;;;;;;46.03;18.10;;;;;;;;;;5128097;27;20047;-68
2022/01/01 04:47:28;;;;;;;48.58;18.73;;;;;;;;;;5128126;27;20151;-68
2022/01/01 04:49:55;;;;;;;44.53;17.48;;;;;;;;;;5129093;27;20053;-68
2022/01/01 04:52:21;;;;;;;51.83;17.50;;;;;;;;;;5129402;27;20051;-68
2022/01/01 04:54:47;;;;;;;47.75;18.20;;;;;;;;;;5129479;27;20043;-68
2022/01/01 04:57:14;;;;;;;46.75;15.85;;;;;;;;;;5128524;27;20426;-68
2022/01/01 04:59:41;;;;;;;45.33;16.88;;;;;;;;;;5127652;27;20055;-69
2022/01/01 05:02:07;;;;;;;45.63;16.70;;;;;;;;;;5110907;27;20146;-68
2022/01/01 05:04:36;;;;;;;45.40;17.02;;;;;;;;;;5128654;27;20044;-69
2022/01/01 05:07:03;;;;;;;44.42;17.38;;;;;;;;;;5128264;27;20052;-69
2022/01/01 05:09:29;;;;;;;40.90;16.65;;;;;;;;;;5128484;27;20472;-70
2022/01/01 05:11:56;;;;;;;50.95;17.52;;;;;;;;;;5127606;27;20122;-68
2022/01/01 05:14:22;;;;;;;44.80;17.30;;;;;;;;;;5128556;27;20051;-68
2022/01/01 05:16:51;;;;;;;40.17;18.00;;;;;;;;;;5128604;27;20107;-68
2022/01/01 05:19:19;;;;;;;42.47;17.98;;;;;;;;;;5128503;27;20052;-68
2022/01/01 05:21:46;;;;;;;44.38;17.70;;;;;;;;;;5128328;27;20048;-69
2022/01/01 05:24:18;;;;;;;49.58;19.45;;;;;;;;;;5127105;27;20512;-68
2022/01/01 05:26:44;;;;;;;48.28;18.33;;;;;;;;;;5128277;27;20138;-68
2022/01/01 05:29:11;;;;;;;50.65;17.67;;;;;;;;;;5127839;27;20090;-68
2022/01/01 05:31:37;;;;;;;44.30;17.38;;;;;;;;;;5128316;27;20658;-68
2022/01/01 05:34:03;;;;;;;46.63;18.67;;;;;;;;;;5127557;27;20056;-68
2022/01/01 05:36:30;;;;;;;44.15;17.23;;;;;;;;;;5128605;27;20529;-68
2022/01/01 05:38:56;;;;;;;39.92;16.90;;;;;;;;;;5128772;27;20054;-68
2022/01/01 05:41:23;;;;;;;36.60;16.92;;;;;;;;;;5127608;27;20039;-68
2022/01/01 05:43:49;;;;;;;47.72;17.08;;;;;;;;;;5128093;27;20056;-68
2022/01/01 05:46:16;;;;;;;36.97;15.80;;;;;;;;;;5127995;27;20062;-68
2022/01/01 05:48:42;;;;;;;41.63;17.55;;;;;;;;;;5126765;27;20083;-69
2022/01/01 05:51:08;;;;;;;44.92;15.98;;;;;;;;;;5128134;27;20483;-68
2022/01/01 05:53:35;;;;;;;45.88;17.88;;;;;;;;;;5127866;27;20468;-68
2022/01/01 05:56:01;;;;;;;40.90;15.27;;;;;;;;;;5127463;27;20051;-68
2022/01/01 05:58:27;;;;;;;41.97;15.73;;;;;;;;;;5127200;27;20133;-68
2022/01/01 06:00:54;;;;;;;37.03;14.63;;;;;;;;;;5128377;27;20039;-68
2022/01/01 06:03:20;;;;;;;44.28;15.90;;;;;;;;;;5109429;27;20048;-68
2022/01/01 06:05:51;;;;;;;39.40;14.98;;;;;;;;;;5127414;27;20060;-68
2022/01/01 06:08:18;;;;;;;35.58;14.05;;;;;;;;;;5127864;27;20158;-67
2022/01/01 06:10:44;;;;;;;39.55;13.98;;;;;;;;;;5127697;27;20060;-67
2022/01/01 06:13:11;;;;;;;38.38;13.77;;;;;;;;;;5127573;27;20144;-67
2022/01/01 06:15:37;;;;;;;35.65;13.57;;;;;;;;;;5126753;27;20075;-68
2022/01/01 06:18:04;;;;;;;35.63;13.23;;;;;;;;;;5127760;27;20707;-68
2022/01/01 06:20:30;;;;;;;34.63;12.85;;;;;;;;;;5129768;27;20052;-68
2022/01/01 06:23:05;;;;;;;35.50;12.85;;;;;;;;;;5130326;27;20143;-68
2022/01/01 06:25:32;;;;;;;31.73;12.32;;;;;;;;;;5130746;27;20170;-68
2022/01/01 06:27:59;;;;;;;32.88;11.73;;;;;;;;;;5130894;27;20050;-69
2022/01/01 06:30:25;;;;;;;32.72;12.18;;;;;;;;;;5130793;27;20485;-68
2022/01/01 06:32:52;;;;;;;29.08;12.38;;;;;;;;;;5131107;27;20137;-68
2022/01/01 06:35:18;;;;;;;31.48;12.15;;;;;;;;;;5131314;27;20168;-68
2022/01/01 06:37:44;;;;;;;34.15;12.50;;;;;;;;;;5131035;27;20135;-68
2022/01/01 06:40:11;;;;;;;37.63;13.43;;;;;;;;;;5130744;27;20055;-68
2022/01/01 06:42:37;;;;;;;28.52;13.18;;;;;;;;;;5130636;27;20056;-68
2022/01/01 06:45:04;;;;;;;28.02;12.45;;;;;;;;;;5130638;27;20446;-68
2022/01/01 06:47:30;;;;;;;33.53;12.18;;;;;;;;;;5130675;27;20055;-69
2022/01/01 06:49:56;;;;;;;37.75;12.48;;;;;;;;;;5131110;27;20048;-68
2022/01/01 06:52:23;;;;;;;30.50;11.98;;;;;;;;;;5130296;27;20524;-68
2022/01/01 06:54:49;;;;;;;28.20;11.38;;;;;;;;;;5130980;27;20043;-69
2022/01/01 06:57:15;;;;;;;33.10;13.02;;;;;;;;;;5129932;27;20112;-68
2022/01/01 06:59:42;;;;;;;30.27;11.55;;;;;;;;;;5130471;27;20055;-69
2022/01/01 07:02:08;;;;;;;29.75;12.25;;;;;;;;;;5129658;27;20093;-68
2022/01/01 07:04:35;;;;;;;27.08;11.45;;;;;;;;;;5130592;27;20056;-69
2022/01/01 07:07:01;;;;;;;31.52;11.85;;;;;;;;;;5130215;27;20582;-68
2022/01/01 07:09:27;;;;;;;27.55;11.20;;;;;;;;;;5130343;27;20047;-68
2022/01/01 07:11:57;;;;;;;24.08;10.00;;;;;;;;;;5130621;27;20523;-68
2022/01/01 07:14:23;;;;;;;33.13;11.43;;;;;;;;;;5130363;27;20036;-68
2022/01/01 07:16:50;;;;;;;30.70;10.90;;;;;;;;;;5129986;27;20055;-69
2022/01/01 07:19:16;;;;;;;23.58;10.88;;;;;;;;;;5130081;27;20113;-68
2022/01/01 07:21:43;;;;;;;32.10;10.88;;;;;;;;;;5129846;27;21577;-68
2022/01/01 07:24:09;;;;;;;29.35;10.77;;;;;;;;;;5130200;27;20048;-68
2022/01/01 07:26:35;;;;;;;25.80;10.32;;;;;;;;;;5129906;27;20062;-68
2022/01/01 07:29:01;;;;;;;26.02;10.35;;;;;;;;;;5130033;27;20127;-69
2022/01/01 07:31:28;;;;;;;27.02;10.32;;;;;;;;;;5129180;27;20150;-69
2022/01/01 07:33:54;;;;;;;31.38;10.05;;;;;;;;;;5129838;27;20162;-68
2022/01/01 07:36:21;;;;;;;25.42;9.55;;;;;;;;;;5129822;27;20047;-69
2022/01/01 07:38:47;;;;;;;22.15;8.75;;;;;;;;;;5111361;27;20163;-69
2022/01/01 07:41:13;;;;;;;22.52;9.02;;;;;;;;;;5129945;27;20053;-68
2022/01/01 07:43:39;;;;;;;22.98;8.82;;;;;;;;;;5129290;27;20055;-67
2022/01/01 07:46:06;;;;;;;19.50;8.98;;;;;;;;;;5129591;27;20060;-68
2022/01/01 07:48:32;;;;;;;19.40;8.50;;;;;;;;;;5129970;27;20105;-68
2022/01/01 07:50:59;;;;;;;26.73;8.98;;;;;;;;;;5128760;27;20059;-68
2022/01/01 07:53:25;;;;;;;24.27;8.32;;;;;;;;;;5129295;27;20085;-68
2022/01/01 07:55:51;;;;;;;24.85;8.85;;;;;;;;;;5129520;27;20066;-68
2022/01/01 07:58:18;;;;;;;19.75;8.45;;;;;;;;;;5129853;27;20083;-68
2022/01/01 08:00:44;;;;;;;22.77;8.90;;;;;;;;;;5129755;27;20047;-68
2022/01/01 08:03:11;;;;;;;23.58;8.00;;;;;;;;;;5129522;27;20051;-68
2022/01/01 08:05:38;;;;;;;29.90;9.57;;;;;;;;;;5129523;27;20054;-68
2022/01/01 08:08:04;;;;;;;14.98;7.78;;;;;;;;;;5130171;27;20895;-68
2022/01/01 08:10:31;;;;;;;21.83;8.48;;;;;;;;;;5129348;27;20050;-68
2022/01/01 08:12:57;;;;;;;22.77;8.23;;;;;;;;;;5129988;27;20055;-68
2022/01/01 08:15:24;;;;;;;20.92;7.80;;;;;;;;;;5128247;27;20051;-69
2022/01/01 08:17:50;;;;;;;22.65;8.80;;;;;;;;;;5129054;27;20099;-69
2022/01/01 08:20:16;;;;;;;19.30;7.75;;;;;;;;;;5129485;27;20056;-68
2022/01/01 08:22:43;;;;;;;22.60;7.95;;;;;;;;;;5129253;27;20108;-68
2022/01/01 08:25:09;;;;;;;22.05;8.52;;;;;;;;;;5128820;27;20590;-69
2022/01/01 08:27:36;;;;;;;25.40;8.35;;;;;;;;;;5129060;27;20052;-68
2022/01/01 08:30:02;;;;;;;23.13;7.97;;;;;;;;;;5128710;27;20055;-68
2022/01/01 08:32:29;;;;;;;18.75;7.25;;;;;;;;;;5129288;27;20506;-68
2022/01/01 08:34:55;;;;;;;21.58;7.70;;;;;;;;;;5129060;27;20056;-68
2022/01/01 08:37:21;;;;;;;17.20;7.03;;;;;;;;;;5128692;27;20524;-68
2022/01/01 08:39:48;;;;;;;18.58;6.93;;;;;;;;;;5128614;27;20055;-68
2022/01/01 08:42:14;;;;;;;19.92;7.32;;;;;;;;;;5128251;27;20085;-68
2022/01/01 08:44:40;;;;;;;17.35;7.25;;;;;;;;;;5110250;27;20718;-68
2022/01/01 08:47:07;;;;;;;18.48;7.13;;;;;;;;;;5128794;27;20058;-68
2022/01/01 08:49:33;;;;;;;20.52;6.45;;;;;;;;;;5129146;27;20047;-68
2022/01/01 08:51:59;;;;;;;16.40;5.85;;;;;;;;;;5129211;27;20062;-69
2022/01/01 08:54:26;;;;;;;21.25;6.38;;;;;;;;;;5128441;27;20055;-69
2022/01/01 08:56:53;;;;;;;15.63;5.75;;;;;;;;;;5129240;27;20671;-68
2022/01/01 08:59:20;;;;;;;19.88;6.45;;;;;;;;;;5128891;27;20071;-68
2022/01/01 09:01:46;;;;;;;17.65;5.55;;;;;;;;;;5129109;27;20135;-68
2022/01/01 09:04:13;;;;;;;13.10;6.03;;;;;;;;;;5127499;27;20590;-69
2022/01/01 09:06:39;;;;;;;19.92;5.60;;;;;;;;;;5128599;27;20498;-68
2022/01/01 09:09:05;;;;;;;22.38;6.18;;;;;;;;;;5128391;27;20514;-68
2022/01/01 09:11:32;;;;;;;13.68;5.22;;;;;;;;;;5128438;27;20055;-68
2022/01/01 09:13:58;;;;;;;17.25;6.00;;;;;;;;;;5129287;27;20453;-68
2022/01/01 09:16:29;;;;;;;17.67;6.30;;;;;;;;;;5110147;27;20052;-68
2022/01/01 09:18:56;;;;;;;12.25;5.85;;;;;;;;;;5127900;27;20082;-68
2022/01/01 09:21:22;;;;;;;17.70;5.60;;;;;;;;;;5127743;27;20488;-68
2022/01/01 09:23:49;;;;;;;17.10;5.63;;;;;;;;;;5128489;27;20855;-68
2022/01/01 09:26:15;;;;;;;11.95;5.07;;;;;;;;;;5128057;27;20510;-68
2022/01/01 09:28:41;;;;;;;17.25;6.05;;;;;;;;;;5127268;27;20061;-68
2022/01/01 09:31:08;;;;;;;15.43;6.40;;;;;;;;;;5128416;27;20052;-68
2022/01/01 09:33:34;;;;;;;17.35;5.35;;;;;;;;;;5128476;27;20074;-68
2022/01/01 09:36:02;;;;;;;17.17;5.57;;;;;;;;;;5128020;27;20512;-68
2022/01/01 09:38:29;;;;;;;12.07;4.90;;;;;;;;;;5128012;27;20083;-68
2022/01/01 09:40:56;;;;;;;16.58;5.68;;;;;;;;;;5127495;27;20232;-68
2022/01/01 09:43:23;;;;;;;15.32;5.55;;;;;;;;;;5127798;27;20091;-68
2022/01/01 09:45:50;;;;;;;14.98;6.18;;;;;;;;;;5127818;27;20052;-68
2022/01/01 09:48:21;;;;;;;18.20;6.15;;;;;;;;;;5127505;27;20083;-68
2022/01/01 09:50:56;;;;;;;21.02;6.75;;;;;;;;;;5125873;27;20137;-68
2022/01/01 09:53:24;;;;;;;14.40;6.13;;;;;;;;;;5126034;27;20059;-68
2022/01/01 09:55:54;;;;;;;13.33;6.03;;;;;;;;;;5131648;27;20047;-68
2022/01/01 09:58:24;;;;;;;18.40;6.20;;;;;;;;;;5131455;27;20048;-68
2022/01/01 10:00:52;;;;;;;20.77;6.78;;;;;;;;;;5131327;27;20056;-68
2022/01/01 10:03:28;;;;;;;15.68;6.80;;;;;;;;;;5131307;27;20059;-68
2022/01/01 10:05:57;;;;;;;21.83;7.18;;;;;;;;;;5130989;27;20549;-68
2022/01/01 10:08:24;;;;;;;14.77;6.75;;;;;;;;;;5131653;27;20527;-68
2022/01/01 10:10:51;;;;;;;14.73;7.25;;;;;;;;;;5131798;27;20516;-68
2022/01/01 10:13:17;;;;;;;17.55;7.03;;;;;;;;;;5131227;27;20054;-68
2022/01/01 10:15:44;;;;;;;18.05;7.00;;;;;;;;;;5130954;27;20052;-69
2022/01/01 10:18:10;;;;;;;19.42;7.53;;;;;;;;;;5131007;27;20144;-68
2022/01/01 10:20:36;;;;;;;14.60;7.30;;;;;;;;;;5129522;27;20478;-68
2022/01/01 10:23:10;;;;;;;17.55;7.43;;;;;;;;;;5130792;27;20052;-67
2022/01/01 10:28:21;;;;;;;15.20;6.97;;;;;;;;;;5131210;27;20048;-68
2022/01/01 10:30:48;;;;;;;21.15;8.30;;;;;;;;;;5130724;27;20056;-68
2022/01/01 10:33:15;;;;;;;18.95;8.55;;;;;;;;;;5130944;27;20054;-68
2022/01/01 10:35:43;;;;;;;17.02;7.85;;;;;;;;;;5130164;27;20054;-68
2022/01/01 10:38:11;;;;;;;19.52;8.40;;;;;;;;;;5130707;27;20509;-68
2022/01/01 10:40:38;;;;;;;18.42;7.85;;;;;;;;;;5131460;27;20273;-68
2022/01/01 10:43:04;;;;;;;17.77;7.85;;;;;;;;;;5130012;27;20061;-69
2022/01/01 10:45:36;;;;;;;20.10;8.25;;;;;;;;;;5130540;27;20074;-67
2022/01/01 10:48:04;;;;;;;18.00;8.35;;;;;;;;;;5130347;27;20105;-68
2022/01/01 10:50:36;;;;;;;23.13;8.20;;;;;;;;;;5130303;27;20083;-68
2022/01/01 10:53:29;;;;;;;14.93;7.70;;;;;;;;;;5130625;27;20842;-68
2022/01/01 10:55:57;;;;;;;19.98;8.57;;;;;;;;;;5126616;27;20146;-68
2022/01/01 10:58:34;;;;;;;15.48;7.82;;;;;;;;;;5131225;27;20154;-69
2022/01/01 11:01:02;;;;;;;16.50;8.63;;;;;;;;;;5130117;27;20052;-68
2022/01/01 11:03:34;;;;;;;22.17;8.80;;;;;;;;;;5131149;27;20109;-68
2022/01/01 11:06:04;;;;;;;16.60;8.07;;;;;;;;;;5129459;27;20043;-69
2022/01/01 11:08:31;;;;;;;21.88;9.50;;;;;;;;;;5130386;27;20058;-68
2022/01/01 11:10:58;;;;;;;17.85;9.10;;;;;;;;;;5130602;27;20054;-69
2022/01/01 11:13:25;;;;;;;20.42;9.48;;;;;;;;;;5130270;27;20044;-67
2022/01/01 11:15:51;;;;;;;21.52;9.68;;;;;;;;;;5130408;27;20047;-67
2022/01/01 11:18:18;;;;;;;21.90;9.15;;;;;;;;;;5130598;27;20052;-68
2022/01/01 11:20:44;;;;;;;22.13;9.90;;;;;;;;;;5130601;27;20043;-68
2022/01/01 11:23:11;;;;;;;19.90;9.85;;;;;;;;;;5130536;27;20151;-68
2022/01/01 11:25:39;;;;;;;22.08;10.07;;;;;;;;;;5129804;27;20058;-68
2022/01/01 11:28:10;;;;;;;16.60;9.18;;;;;;;;;;5129717;27;20051;-68
2022/01/01 11:30:41;;;;;;;20.98;9.50;;;;;;;;;;5129809;27;20147;-68
2022/01/01 11:33:12;;;;;;;18.75;9.48;;;;;;;;;;5128798;27;20061;-69
2022/01/01 11:35:43;;;;;;;21.65;9.73;;;;;;;;;;5129509;27;20170;-67
2022/01/01 11:38:11;;;;;;;20.30;9.13;;;;;;;;;;5129822;27;20526;-68
2022/01/01 11:40:53;;;;;;;19.45;8.23;;;;;;;;;;5130542;27;20058;-68
2022/01/01 11:43:33;;;;;;;16.05;8.57;;;;;;;;;;5129861;27;20055;-68
2022/01/01 11:46:15;;;;;;;16.92;9.07;;;;;;;;;;5129434;27;20516;-68
2022/01/01 11:48:43;;;;;;;19.80;8.95;;;;;;;;;;5129914;27;20050;-68
2022/01/01 11:51:23;;;;;;;18.48;8.82;;;;;;;;;;5129300;27;20055;-67
2022/01/01 11:54:06;;;;;;;15.02;8.77;;;;;;;;;;5129959;27;20058;-67
2022/01/01 11:56:51;;;;;;;15.82;8.55;;;;;;;;;;5129893;27;20546;-68
2022/01/01 11:59:24;;;;;;;15.98;8.80;;;;;;;;;;5128340;27;20510;-68
2022/01/01 12:01:51;;;;;;;16.58;8.82;;;;;;;;;;5129570;27;20051;-68
2022/01/01 12:04:21;;;;;;;15.97;8.70;;;;;;;;;;5129724;27;20102;-68
2022/01/01 12:06:56;;;;;;;16.70;9.02;;;;;;;;;;5130507;27;20273;-69
2022/01/01 12:09:23;;;;;;;16.08;8.45;;;;;;;;;;5130171;27;20043;-70
2022/01/01 12:11:53;;;;;;;16.25;8.50;;;;;;;;;;5129345;27;20061;-70
2022/01/01 12:14:19;;;;;;;18.95;8.82;;;;;;;;;;5129488;27;20062;-69
2022/01/01 12:16:50;;;;;;;21.52;9.25;;;;;;;;;;5129286;27;20126;-68
2022/01/01 12:19:19;;;;;;;16.08;8.50;;;;;;;;;;5128952;27;20058;-69
2022/01/01 12:21:45;;;;;;;20.33;9.05;;;;;;;;;;5129180;27;20047;-68
2022/01/01 12:24:18;;;;;;;19.88;8.75;;;;;;;;;;5127996;27;20501;-69
2022/01/01 12:26:50;;;;;;;15.93;8.40;;;;;;;;;;5128729;27;20126;-68
2022/01/01 12:29:20;;;;;;;16.80;8.60;;;;;;;;;;5129207;27;20102;-69
2022/01/01 12:31:57;;;;;;;14.98;7.78;;;;;;;;;;5129304;27;20502;-68
2022/01/01 12:34:24;;;;;;;14.85;8.40;;;;;;;;;;5128909;27;20101;-68
2022/01/01 12:36:55;;;;;;;15.73;8.50;;;;;;;;;;5129237;27;20043;-69
2022/01/01 12:39:21;;;;;;;14.25;7.90;;;;;;;;;;5129441;27;20146;-69
2022/01/01 12:41:48;;;;;;;18.45;8.50;;;;;;;;;;5129037;27;20061;-69
2022/01/01 12:44:20;;;;;;;14.90;8.20;;;;;;;;;;5128447;27;20055;-68
2022/01/01 12:46:47;;;;;;;18.48;8.30;;;;;;;;;;5129023;27;20051;-69
2022/01/01 12:49:16;;;;;;;13.98;6.75;;;;;;;;;;5128271;27;20124;-69
2022/01/01 12:51:43;;;;;;;16.88;7.88;;;;;;;;;;5128432;27;20058;-69
2022/01/01 12:54:12;;;;;;;16.88;7.43;;;;;;;;;;5129430;27;20058;-69
2022/01/01 12:56:39;;;;;;;12.18;7.18;;;;;;;;;;5128392;27;20469;-68
2022/01/01 12:59:08;;;;;;;13.95;7.57;;;;;;;;;;5128360;27;20143;-68
2022/01/01 13:01:34;;;;;;;;;;;;;;;;;;5129482;27;20053;-69
2022/01/01 13:04:05;;;;;;;16.85;7.15;;;;;;;;;;5127844;27;45537;-68
2022/01/01 13:06:33;;;;;;;15.80;7.38;;;;;;;;;;5128282;27;20055;-69
2022/01/01 13:09:00;;;;;;;17.00;7.07;;;;;;;;;;5129171;27;20531;-68
2022/01/01 13:11:27;;;;;;;13.10;6.73;;;;;;;;;;5128960;27;20080;-68
2022/01/01 13:13:53;;;;;;;15.25;6.60;;;;;;;;;;5127955;27;20067;-68
2022/01/01 13:16:20;;;;;;;18.60;7.10;;;;;;;;;;5128870;27;20048;-69
2022/01/01 13:18:46;;;;;;;16.30;6.88;;;;;;;;;;5128855;27;20142;-69
2022/01/01 13:21:13;;;;;;;15.48;6.53;;;;;;;;;;5128270;27;20050;-69
2022/01/01 13:23:39;;;;;;;15.27;6.65;;;;;;;;;;5128830;27;20062;-69
2022/01/01 13:26:06;;;;;;;13.10;6.03;;;;;;;;;;5128025;27;20151;-69
2022/01/01 13:28:33;;;;;;;11.82;6.28;;;;;;;;;;5129155;27;20058;-69
2022/01/01 13:31:01;;;;;;;13.57;6.38;;;;;;;;;;5131559;27;20052;-69
2022/01/01 13:33:27;;;;;;;14.40;6.65;;;;;;;;;;5131533;27;20531;-69
2022/01/01 13:35:55;;;;;;;12.75;6.50;;;;;;;;;;5132127;27;20051;-69
2022/01/01 13:38:21;;;;;;;10.38;5.80;;;;;;;;;;5131601;27;20528;-69
2022/01/01 13:40:49;;;;;;;11.65;5.90;;;;;;;;;;5132263;27;20058;-69
2022/01/01 13:43:16;;;;;;;13.63;6.77;;;;;;;;;;5131912;27;20431;-68
2022/01/01 13:46:03;;;;;;;11.90;5.68;;;;;;;;;;5131324;27;20294;-69
2022/01/01 13:48:38;;;;;;;14.88;6.78;;;;;;;;;;5132304;27;20612;-69
2022/01/01 13:51:05;;;;;;;17.17;5.75;;;;;;;;;;5132080;27;20078;-69
2022/01/01 13:53:31;;;;;;;12.27;5.78;;;;;;;;;;5132033;27;20078;-69
2022/01/01 13:56:02;;;;;;;12.65;5.72;;;;;;;;;;5131585;27;20050;-69
2022/01/01 13:58:29;;;;;;;12.40;6.30;;;;;;;;;;5132100;27;20549;-68
2022/01/01 14:00:57;;;;;;;15.48;6.53;;;;;;;;;;5131654;27;20055;-69
2022/01/01 14:03:25;;;;;;;14.32;6.43;;;;;;;;;;5131549;27;20059;-69
2022/01/01 14:05:52;;;;;;;12.23;5.53;;;;;;;;;;5131014;27;20126;-68
2022/01/01 14:08:19;;;;;;;12.93;6.15;;;;;;;;;;5130974;27;20134;-68
2022/01/01 14:10:52;;;;;;;14.80;5.47;;;;;;;;;;5131689;27;20054;-69
2022/01/01 14:13:32;;;;;;;11.77;5.15;;;;;;;;;;5131487;27;20056;-65
2022/01/01 14:15:59;;;;;;;15.38;5.60;;;;;;;;;;5130642;27;20130;-67
2022/01/01 14:18:27;;;;;;;10.02;5.28;;;;;;;;;;5131323;27;20058;-67
2022/01/01 14:20:54;;;;;;;19.48;5.47;;;;;;;;;;5131521;27;20055;-66
2022/01/01 14:23:32;;;;;;;11.18;5.43;;;;;;;;;;5132378;27;20569;-66
2022/01/01 14:26:00;;;;;;;18.15;6.15;;;;;;;;;;5131211;27;20059;-66
2022/01/01 14:28:26;;;;;;;10.52;5.32;;;;;;;;;;5130391;27;20493;-66
2022/01/01 14:30:54;;;;;;;14.35;5.57;;;;;;;;;;5124503;27;20128;-67